sensor_id;sensor_type;location;lat;lon;timestamp;temperature;humidity
16736;DHT22;17990;49.548;9.730;2024-02-14T00:00:13;2.90;99.90
16736;DHT22;17990;49.548;9.730;2024-02-14T00:02:40;2.90;99.90
16736;DHT22;17990;49.548;9.730;2024-02-14T00:05:07;2.90;99.90
16736;DHT22;17990;49.548;9.730;2024-02-14T00:07:35;2.90;99.90
16736;DHT22;17990;49.548;9.730;2024-02-14T00:10:02;2.90;99.90
16736;DHT22;17990;49.548;9.730;2024-02-14T00:12:31;2.80;99.90
16736;DHT22;17990;49.548;9.730;2024-02-14T00:14:58;2.80;99.90
16736;DHT22;17990;49.548;9.730;2024-02-14T00:17:26;2.80;99.90
16736;DHT22;17990;49.548;9.730;2024-02-14T00:19:52;2.80;99.90
16736;DHT22;17990;49.548;9.730;2024-02-14T00:22:19;2.70;99.90
16736;DHT22;17990;49.548;9.730;2024-02-14T00:24:46;2.70;99.90
16736;DHT22;17990;49.548;9.730;2024-02-14T00:27:12;2.70;99.90
16736;DHT22;17990;49.548;9.730;2024-02-14T00:29:40;2.70;99.90
16736;DHT22;17990;49.548;9.730;2024-02-14T00:32:06;2.60;99.90
16736;DHT22;17990;49.548;9.730;2024-02-14T00:34:34;2.60;99.90
16736;DHT22;17990;49.548;9.730;2024-02-14T00:37:01;2.50;99.90
16736;DHT22;17990;49.548;9.730;2024-02-14T00:39:28;2.50;99.90
16736;DHT22;17990;49.548;9.730;2024-02-14T00:41:54;2.50;99.90
16736;DHT22;17990;49.548;9.730;2024-02-14T00:44:21;2.50;99.90
16736;DHT22;17990;49.548;9.730;2024-02-14T00:46:48;2.40;99.90
16736;DHT22;17990;49.548;9.730;2024-02-14T00:49:15;2.40;99.90
16736;DHT22;17990;49.548;9.730;2024-02-14T00:51:43;2.40;99.90
16736;DHT22;17990;49.548;9.730;2024-02-14T00:54:10;2.30;99.90
16736;DHT22;17990;49.548;9.730;2024-02-14T00:56:37;2.30;99.90
16736;DHT22;17990;49.548;9.730;2024-02-14T00:59:03;2.30;99.90
16736;DHT22;17990;49.548;9.730;2024-02-14T01:01:31;2.20;99.90
16736;DHT22;17990;49.548;9.730;2024-02-14T01:03:58;2.30;99.90
16736;DHT22;17990;49.548;9.730;2024-02-14T01:06:24;2.20;99.90
16736;DHT22;17990;49.548;9.730;2024-02-14T01:08:52;2.20;99.90
16736;DHT22;17990;49.548;9.730;2024-02-14T01:11:19;2.20;99.90
16736;DHT22;17990;49.548;9.730;2024-02-14T01:13:46;2.10;99.90
16736;DHT22;17990;49.548;9.730;2024-02-14T01:16:12;2.10;99.90
16736;DHT22;17990;49.548;9.730;2024-02-14T01:18:39;2.00;99.90
16736;DHT22;17990;49.548;9.730;2024-02-14T01:21:06;2.10;99.90
16736;DHT22;17990;49.548;9.730;2024-02-14T01:23:33;2.00;99.90
16736;DHT22;17990;49.548;9.730;2024-02-14T01:26:01;2.00;99.90
16736;DHT22;17990;49.548;9.730;2024-02-14T01:28:28;2.00;99.90
16736;DHT22;17990;49.548;9.730;2024-02-14T01:30:55;2.00;99.90
16736;DHT22;17990;49.548;9.730;2024-02-14T01:33:22;1.90;99.90
16736;DHT22;17990;49.548;9.730;2024-02-14T01:35:49;1.90;99.90
16736;DHT22;17990;49.548;9.730;2024-02-14T01:38:15;1.90;99.90
16736;DHT22;17990;49.548;9.730;2024-02-14T01:40:42;1.90;99.90
16736;DHT22;17990;49.548;9.730;2024-02-14T01:43:12;1.90;99.90
16736;DHT22;17990;49.548;9.730;2024-02-14T01:45:39;1.80;99.90
16736;DHT22;17990;49.548;9.730;2024-02-14T01:48:07;1.80;99.90
16736;DHT22;17990;49.548;9.730;2024-02-14T01:50:35;1.80;99.90
16736;DHT22;17990;49.548;9.730;2024-02-14T01:53:02;1.80;99.90
16736;DHT22;17990;49.548;9.730;2024-02-14T01:55:30;1.90;99.90
16736;DHT22;17990;49.548;9.730;2024-02-14T01:57:57;2.00;99.90
16736;DHT22;17990;49.548;9.730;2024-02-14T02:00:25;2.10;99.90
16736;DHT22;17990;49.548;9.730;2024-02-14T02:02:53;2.20;99.90
16736;DHT22;17990;49.548;9.730;2024-02-14T02:05:21;2.30;99.90
16736;DHT22;17990;49.548;9.730;2024-02-14T02:07:48;2.40;99.90
16736;DHT22;17990;49.548;9.730;2024-02-14T02:10:15;2.50;99.90
16736;DHT22;17990;49.548;9.730;2024-02-14T02:12:42;2.50;99.90
16736;DHT22;17990;49.548;9.730;2024-02-14T02:15:09;2.60;99.90
16736;DHT22;17990;49.548;9.730;2024-02-14T02:17:40;2.60;99.90
16736;DHT22;17990;49.548;9.730;2024-02-14T02:20:08;2.60;99.90
16736;DHT22;17990;49.548;9.730;2024-02-14T02:22:34;2.70;99.90
16736;DHT22;17990;49.548;9.730;2024-02-14T02:25:03;2.80;99.90
16736;DHT22;17990;49.548;9.730;2024-02-14T02:27:32;2.90;99.90
16736;DHT22;17990;49.548;9.730;2024-02-14T02:30:00;2.90;99.90
16736;DHT22;17990;49.548;9.730;2024-02-14T02:32:27;2.90;99.90
16736;DHT22;17990;49.548;9.730;2024-02-14T02:34:54;2.90;99.90
16736;DHT22;17990;49.548;9.730;2024-02-14T02:37:21;2.90;99.90
16736;DHT22;17990;49.548;9.730;2024-02-14T02:39:48;2.90;99.90
16736;DHT22;17990;49.548;9.730;2024-02-14T02:42:18;2.90;99.90
16736;DHT22;17990;49.548;9.730;2024-02-14T02:44:46;3.00;99.90
16736;DHT22;17990;49.548;9.730;2024-02-14T02:47:13;3.00;99.90
16736;DHT22;17990;49.548;9.730;2024-02-14T02:49:42;3.10;99.90
16736;DHT22;17990;49.548;9.730;2024-02-14T02:52:09;3.20;99.90
16736;DHT22;17990;49.548;9.730;2024-02-14T02:54:36;3.20;99.90
16736;DHT22;17990;49.548;9.730;2024-02-14T02:57:06;3.30;99.90
16736;DHT22;17990;49.548;9.730;2024-02-14T02:59:34;3.40;99.90
16736;DHT22;17990;49.548;9.730;2024-02-14T03:02:01;3.30;99.90
16736;DHT22;17990;49.548;9.730;2024-02-14T03:04:28;3.40;99.90
16736;DHT22;17990;49.548;9.730;2024-02-14T03:06:55;3.40;99.90
16736;DHT22;17990;49.548;9.730;2024-02-14T03:09:22;3.40;99.90
16736;DHT22;17990;49.548;9.730;2024-02-14T03:11:49;3.40;99.90
16736;DHT22;17990;49.548;9.730;2024-02-14T03:14:15;3.40;99.90
16736;DHT22;17990;49.548;9.730;2024-02-14T03:16:43;3.40;99.90
16736;DHT22;17990;49.548;9.730;2024-02-14T03:19:10;3.50;99.90
16736;DHT22;17990;49.548;9.730;2024-02-14T03:21:37;3.50;99.90
16736;DHT22;17990;49.548;9.730;2024-02-14T03:24:04;3.50;99.90
16736;DHT22;17990;49.548;9.730;2024-02-14T03:26:31;3.50;99.90
16736;DHT22;17990;49.548;9.730;2024-02-14T03:28:59;3.50;99.90
16736;DHT22;17990;49.548;9.730;2024-02-14T03:31:26;3.50;99.90
16736;DHT22;17990;49.548;9.730;2024-02-14T03:33:54;3.40;99.90
16736;DHT22;17990;49.548;9.730;2024-02-14T03:36:20;3.50;99.90
16736;DHT22;17990;49.548;9.730;2024-02-14T03:38:49;3.50;99.90
16736;DHT22;17990;49.548;9.730;2024-02-14T03:41:16;3.60;99.90
16736;DHT22;17990;49.548;9.730;2024-02-14T03:43:42;3.60;99.90
16736;DHT22;17990;49.548;9.730;2024-02-14T03:46:09;3.70;99.90
16736;DHT22;17990;49.548;9.730;2024-02-14T03:48:38;3.70;99.90
16736;DHT22;17990;49.548;9.730;2024-02-14T03:51:07;3.70;99.90
16736;DHT22;17990;49.548;9.730;2024-02-14T03:53:34;3.70;99.90
16736;DHT22;17990;49.548;9.730;2024-02-14T03:56:00;3.70;99.90
16736;DHT22;17990;49.548;9.730;2024-02-14T03:58:27;3.70;99.90
16736;DHT22;17990;49.548;9.730;2024-02-14T04:00:54;3.70;99.90
16736;DHT22;17990;49.548;9.730;2024-02-14T04:03:21;3.70;99.90
16736;DHT22;17990;49.548;9.730;2024-02-14T04:05:48;3.70;99.90
16736;DHT22;17990;49.548;9.730;2024-02-14T04:08:16;3.80;99.90
16736;DHT22;17990;49.548;9.730;2024-02-14T04:10:43;3.80;99.90
16736;DHT22;17990;49.548;9.730;2024-02-14T04:13:10;3.90;99.90
16736;DHT22;17990;49.548;9.730;2024-02-14T04:15:36;4.00;99.90
16736;DHT22;17990;49.548;9.730;2024-02-14T04:18:03;4.00;99.90
16736;DHT22;17990;49.548;9.730;2024-02-14T04:20:31;4.10;99.90
16736;DHT22;17990;49.548;9.730;2024-02-14T04:22:58;4.10;99.90
16736;DHT22;17990;49.548;9.730;2024-02-14T04:25:26;4.10;99.90
16736;DHT22;17990;49.548;9.730;2024-02-14T04:27:53;4.20;99.90
16736;DHT22;17990;49.548;9.730;2024-02-14T04:30:20;4.20;99.90
16736;DHT22;17990;49.548;9.730;2024-02-14T04:32:46;4.20;99.90
16736;DHT22;17990;49.548;9.730;2024-02-14T04:35:14;4.30;99.90
16736;DHT22;17990;49.548;9.730;2024-02-14T04:37:41;4.30;99.90
16736;DHT22;17990;49.548;9.730;2024-02-14T04:40:12;4.30;99.90
16736;DHT22;17990;49.548;9.730;2024-02-14T04:42:40;4.30;99.90
16736;DHT22;17990;49.548;9.730;2024-02-14T04:45:07;4.40;99.90
16736;DHT22;17990;49.548;9.730;2024-02-14T04:47:34;4.40;99.90
16736;DHT22;17990;49.548;9.730;2024-02-14T04:50:01;4.40;99.90
16736;DHT22;17990;49.548;9.730;2024-02-14T04:52:29;4.40;99.90
16736;DHT22;17990;49.548;9.730;2024-02-14T04:54:56;4.40;99.90
16736;DHT22;17990;49.548;9.730;2024-02-14T04:57:23;4.40;99.90
16736;DHT22;17990;49.548;9.730;2024-02-14T04:59:52;4.50;99.90
16736;DHT22;17990;49.548;9.730;2024-02-14T05:02:19;4.50;99.90
16736;DHT22;17990;49.548;9.730;2024-02-14T05:04:46;4.60;99.90
16736;DHT22;17990;49.548;9.730;2024-02-14T05:07:13;4.60;99.90
16736;DHT22;17990;49.548;9.730;2024-02-14T05:09:39;4.60;99.90
16736;DHT22;17990;49.548;9.730;2024-02-14T05:12:06;4.60;99.90
16736;DHT22;17990;49.548;9.730;2024-02-14T05:14:38;4.60;99.90
16736;DHT22;17990;49.548;9.730;2024-02-14T05:17:07;4.50;99.90
16736;DHT22;17990;49.548;9.730;2024-02-14T05:19:34;4.50;99.90
16736;DHT22;17990;49.548;9.730;2024-02-14T05:22:00;4.50;99.90
16736;DHT22;17990;49.548;9.730;2024-02-14T05:24:27;4.50;99.90
16736;DHT22;17990;49.548;9.730;2024-02-14T05:26:54;4.50;99.90
16736;DHT22;17990;49.548;9.730;2024-02-14T05:29:21;4.50;99.90
16736;DHT22;17990;49.548;9.730;2024-02-14T05:31:48;4.50;99.90
16736;DHT22;17990;49.548;9.730;2024-02-14T05:34:16;4.60;99.90
16736;DHT22;17990;49.548;9.730;2024-02-14T05:36:43;4.70;99.90
16736;DHT22;17990;49.548;9.730;2024-02-14T05:39:11;4.70;99.90
16736;DHT22;17990;49.548;9.730;2024-02-14T05:41:38;4.70;99.90
16736;DHT22;17990;49.548;9.730;2024-02-14T05:44:04;4.80;99.90
16736;DHT22;17990;49.548;9.730;2024-02-14T05:46:31;4.70;99.90
16736;DHT22;17990;49.548;9.730;2024-02-14T05:48:58;4.80;99.90
16736;DHT22;17990;49.548;9.730;2024-02-14T05:51:26;4.90;99.90
16736;DHT22;17990;49.548;9.730;2024-02-14T05:53:52;4.90;99.90
16736;DHT22;17990;49.548;9.730;2024-02-14T05:56:19;5.00;99.90
16736;DHT22;17990;49.548;9.730;2024-02-14T05:58:46;5.10;99.90
16736;DHT22;17990;49.548;9.730;2024-02-14T06:01:12;5.10;99.90
16736;DHT22;17990;49.548;9.730;2024-02-14T06:03:41;5.20;99.90
16736;DHT22;17990;49.548;9.730;2024-02-14T06:06:08;5.20;99.90
16736;DHT22;17990;49.548;9.730;2024-02-14T06:08:36;5.30;99.90
16736;DHT22;17990;49.548;9.730;2024-02-14T06:11:03;5.30;99.90
16736;DHT22;17990;49.548;9.730;2024-02-14T06:13:30;5.30;99.90
16736;DHT22;17990;49.548;9.730;2024-02-14T06:15:57;5.40;99.90
16736;DHT22;17990;49.548;9.730;2024-02-14T06:18:23;5.50;99.90
16736;DHT22;17990;49.548;9.730;2024-02-14T06:20:50;5.50;99.90
16736;DHT22;17990;49.548;9.730;2024-02-14T06:23:17;5.50;99.90
16736;DHT22;17990;49.548;9.730;2024-02-14T06:25:45;5.60;99.90
16736;DHT22;17990;49.548;9.730;2024-02-14T06:28:12;5.60;99.90
16736;DHT22;17990;49.548;9.730;2024-02-14T06:30:38;5.50;99.90
16736;DHT22;17990;49.548;9.730;2024-02-14T06:33:05;5.50;99.90
16736;DHT22;17990;49.548;9.730;2024-02-14T06:35:32;5.60;99.90
16736;DHT22;17990;49.548;9.730;2024-02-14T06:37:58;5.60;99.90
16736;DHT22;17990;49.548;9.730;2024-02-14T06:40:25;5.70;99.90
16736;DHT22;17990;49.548;9.730;2024-02-14T06:42:54;5.80;99.90
16736;DHT22;17990;49.548;9.730;2024-02-14T06:45:21;5.90;99.90
16736;DHT22;17990;49.548;9.730;2024-02-14T06:47:47;5.90;99.90
16736;DHT22;17990;49.548;9.730;2024-02-14T06:50:14;6.00;99.90
16736;DHT22;17990;49.548;9.730;2024-02-14T06:52:41;6.00;99.90
16736;DHT22;17990;49.548;9.730;2024-02-14T06:55:08;6.00;99.90
16736;DHT22;17990;49.548;9.730;2024-02-14T06:57:35;6.20;99.90
16736;DHT22;17990;49.548;9.730;2024-02-14T07:00:03;6.20;99.90
16736;DHT22;17990;49.548;9.730;2024-02-14T07:02:32;6.30;99.90
16736;DHT22;17990;49.548;9.730;2024-02-14T07:04:58;6.40;99.90
16736;DHT22;17990;49.548;9.730;2024-02-14T07:07:25;6.40;99.90
16736;DHT22;17990;49.548;9.730;2024-02-14T07:09:53;6.40;99.90
16736;DHT22;17990;49.548;9.730;2024-02-14T07:12:19;6.50;99.90
16736;DHT22;17990;49.548;9.730;2024-02-14T07:14:46;6.50;99.90
16736;DHT22;17990;49.548;9.730;2024-02-14T07:17:14;6.70;99.90
16736;DHT22;17990;49.548;9.730;2024-02-14T07:19:41;6.70;99.90
16736;DHT22;17990;49.548;9.730;2024-02-14T07:22:13;6.70;99.90
16736;DHT22;17990;49.548;9.730;2024-02-14T07:24:41;6.80;99.90
16736;DHT22;17990;49.548;9.730;2024-02-14T07:27:08;6.90;99.90
16736;DHT22;17990;49.548;9.730;2024-02-14T07:29:34;6.90;99.90
16736;DHT22;17990;49.548;9.730;2024-02-14T07:32:02;6.90;99.90
16736;DHT22;17990;49.548;9.730;2024-02-14T07:34:30;7.10;99.90
16736;DHT22;17990;49.548;9.730;2024-02-14T07:36:57;7.10;99.90
16736;DHT22;17990;49.548;9.730;2024-02-14T07:39:24;7.20;99.90
16736;DHT22;17990;49.548;9.730;2024-02-14T07:41:51;7.30;99.90
16736;DHT22;17990;49.548;9.730;2024-02-14T07:44:18;7.40;99.90
16736;DHT22;17990;49.548;9.730;2024-02-14T07:46:44;7.50;99.90
16736;DHT22;17990;49.548;9.730;2024-02-14T07:49:11;7.60;99.90
16736;DHT22;17990;49.548;9.730;2024-02-14T07:51:39;7.60;99.90
16736;DHT22;17990;49.548;9.730;2024-02-14T07:54:06;7.70;99.90
16736;DHT22;17990;49.548;9.730;2024-02-14T07:56:33;7.70;99.90
16736;DHT22;17990;49.548;9.730;2024-02-14T07:59:00;7.80;99.90
16736;DHT22;17990;49.548;9.730;2024-02-14T08:01:26;7.90;99.90
16736;DHT22;17990;49.548;9.730;2024-02-14T08:03:53;8.00;99.90
16736;DHT22;17990;49.548;9.730;2024-02-14T08:06:20;8.00;99.90
16736;DHT22;17990;49.548;9.730;2024-02-14T08:08:48;8.10;99.90
16736;DHT22;17990;49.548;9.730;2024-02-14T08:11:18;8.10;99.90
16736;DHT22;17990;49.548;9.730;2024-02-14T08:13:44;8.20;99.90
16736;DHT22;17990;49.548;9.730;2024-02-14T08:16:11;8.20;99.90
16736;DHT22;17990;49.548;9.730;2024-02-14T08:18:38;8.30;99.90
16736;DHT22;17990;49.548;9.730;2024-02-14T08:21:06;8.30;99.90
16736;DHT22;17990;49.548;9.730;2024-02-14T08:23:33;8.30;99.90
16736;DHT22;17990;49.548;9.730;2024-02-14T08:26:01;8.40;99.90
16736;DHT22;17990;49.548;9.730;2024-02-14T08:28:30;8.40;99.90
16736;DHT22;17990;49.548;9.730;2024-02-14T08:30:57;8.40;99.90
16736;DHT22;17990;49.548;9.730;2024-02-14T08:33:24;8.40;99.90
16736;DHT22;17990;49.548;9.730;2024-02-14T08:35:50;8.50;99.90
16736;DHT22;17990;49.548;9.730;2024-02-14T08:38:19;8.50;99.90
16736;DHT22;17990;49.548;9.730;2024-02-14T08:40:45;8.60;99.90
16736;DHT22;17990;49.548;9.730;2024-02-14T08:43:13;8.80;99.90
16736;DHT22;17990;49.548;9.730;2024-02-14T08:45:41;9.00;99.90
16736;DHT22;17990;49.548;9.730;2024-02-14T08:48:07;9.40;99.90
16736;DHT22;17990;49.548;9.730;2024-02-14T08:50:34;9.60;99.90
16736;DHT22;17990;49.548;9.730;2024-02-14T08:53:01;9.70;99.90
16736;DHT22;17990;49.548;9.730;2024-02-14T08:55:27;9.60;99.90
16736;DHT22;17990;49.548;9.730;2024-02-14T08:57:58;9.60;99.90
16736;DHT22;17990;49.548;9.730;2024-02-14T09:00:26;9.50;99.90
16736;DHT22;17990;49.548;9.730;2024-02-14T09:02:52;9.50;99.90
16736;DHT22;17990;49.548;9.730;2024-02-14T09:05:19;9.50;99.90
16736;DHT22;17990;49.548;9.730;2024-02-14T09:07:47;9.50;99.90
16736;DHT22;17990;49.548;9.730;2024-02-14T09:10:14;9.60;99.90
16736;DHT22;17990;49.548;9.730;2024-02-14T09:12:41;9.70;99.90
16736;DHT22;17990;49.548;9.730;2024-02-14T09:15:08;9.80;99.90
16736;DHT22;17990;49.548;9.730;2024-02-14T09:17:38;9.80;99.90
16736;DHT22;17990;49.548;9.730;2024-02-14T09:20:07;9.80;99.90
16736;DHT22;17990;49.548;9.730;2024-02-14T09:22:35;9.80;99.90
16736;DHT22;17990;49.548;9.730;2024-02-14T09:25:01;9.80;99.90
16736;DHT22;17990;49.548;9.730;2024-02-14T09:27:29;9.90;99.90
16736;DHT22;17990;49.548;9.730;2024-02-14T09:29:56;10.20;99.90
16736;DHT22;17990;49.548;9.730;2024-02-14T09:32:23;10.50;99.90
16736;DHT22;17990;49.548;9.730;2024-02-14T09:34:51;10.60;99.90
16736;DHT22;17990;49.548;9.730;2024-02-14T09:37:17;10.50;99.90
16736;DHT22;17990;49.548;9.730;2024-02-14T09:39:44;10.50;99.90
16736;DHT22;17990;49.548;9.730;2024-02-14T09:42:13;10.40;99.90
16736;DHT22;17990;49.548;9.730;2024-02-14T09:44:41;10.40;99.90
16736;DHT22;17990;49.548;9.730;2024-02-14T09:47:09;10.50;99.90
16736;DHT22;17990;49.548;9.730;2024-02-14T09:49:36;10.70;99.90
16736;DHT22;17990;49.548;9.730;2024-02-14T09:52:06;10.80;99.90
16736;DHT22;17990;49.548;9.730;2024-02-14T09:54:36;10.90;99.90
16736;DHT22;17990;49.548;9.730;2024-02-14T09:57:05;10.90;99.90
16736;DHT22;17990;49.548;9.730;2024-02-14T09:59:32;11.00;99.90
16736;DHT22;17990;49.548;9.730;2024-02-14T10:01:59;10.80;99.90
16736;DHT22;17990;49.548;9.730;2024-02-14T10:04:26;10.80;99.90
16736;DHT22;17990;49.548;9.730;2024-02-14T10:06:53;10.80;99.90
16736;DHT22;17990;49.548;9.730;2024-02-14T10:09:22;10.80;99.90
16736;DHT22;17990;49.548;9.730;2024-02-14T10:11:51;10.90;99.90
16736;DHT22;17990;49.548;9.730;2024-02-14T10:14:18;11.00;99.90
16736;DHT22;17990;49.548;9.730;2024-02-14T10:16:44;11.20;99.90
16736;DHT22;17990;49.548;9.730;2024-02-14T10:19:15;11.30;99.90
16736;DHT22;17990;49.548;9.730;2024-02-14T10:21:42;11.40;99.90
16736;DHT22;17990;49.548;9.730;2024-02-14T10:24:09;11.60;99.90
16736;DHT22;17990;49.548;9.730;2024-02-14T10:26:38;11.60;99.90
16736;DHT22;17990;49.548;9.730;2024-02-14T10:29:06;11.50;99.90
16736;DHT22;17990;49.548;9.730;2024-02-14T10:31:35;11.40;99.90
16736;DHT22;17990;49.548;9.730;2024-02-14T10:34:02;11.50;99.90
16736;DHT22;17990;49.548;9.730;2024-02-14T10:36:32;11.70;99.90
16736;DHT22;17990;49.548;9.730;2024-02-14T10:39:01;11.80;99.90
16736;DHT22;17990;49.548;9.730;2024-02-14T10:41:30;11.80;99.90
16736;DHT22;17990;49.548;9.730;2024-02-14T10:44:02;11.80;99.90
16736;DHT22;17990;49.548;9.730;2024-02-14T10:46:32;11.80;99.90
16736;DHT22;17990;49.548;9.730;2024-02-14T10:49:02;11.90;99.90
16736;DHT22;17990;49.548;9.730;2024-02-14T10:51:31;12.00;99.90
16736;DHT22;17990;49.548;9.730;2024-02-14T10:53:58;12.10;99.90
16736;DHT22;17990;49.548;9.730;2024-02-14T10:56:28;12.20;99.90
16736;DHT22;17990;49.548;9.730;2024-02-14T10:58:56;12.30;99.90
16736;DHT22;17990;49.548;9.730;2024-02-14T11:01:26;12.40;99.90
16736;DHT22;17990;49.548;9.730;2024-02-14T11:03:56;12.40;99.90
16736;DHT22;17990;49.548;9.730;2024-02-14T11:06:24;12.30;99.90
16736;DHT22;17990;49.548;9.730;2024-02-14T11:09:00;12.40;99.90
16736;DHT22;17990;49.548;9.730;2024-02-14T11:11:28;12.20;99.90
16736;DHT22;17990;49.548;9.730;2024-02-14T11:13:56;12.20;99.90
16736;DHT22;17990;49.548;9.730;2024-02-14T11:16:27;12.00;99.90
16736;DHT22;17990;49.548;9.730;2024-02-14T11:19:05;11.80;99.90
16736;DHT22;17990;49.548;9.730;2024-02-14T11:21:31;11.70;99.90
16736;DHT22;17990;49.548;9.730;2024-02-14T11:24:04;11.60;99.90
16736;DHT22;17990;49.548;9.730;2024-02-14T11:26:39;11.60;99.90
16736;DHT22;17990;49.548;9.730;2024-02-14T11:29:06;11.70;99.90
16736;DHT22;17990;49.548;9.730;2024-02-14T11:31:36;11.90;99.90
16736;DHT22;17990;49.548;9.730;2024-02-14T11:34:04;12.00;99.90
16736;DHT22;17990;49.548;9.730;2024-02-14T11:36:32;12.10;99.90
16736;DHT22;17990;49.548;9.730;2024-02-14T11:39:01;12.20;99.90
16736;DHT22;17990;49.548;9.730;2024-02-14T11:41:28;12.50;99.90
16736;DHT22;17990;49.548;9.730;2024-02-14T11:43:55;12.50;99.90
16736;DHT22;17990;49.548;9.730;2024-02-14T11:46:21;12.40;99.90
16736;DHT22;17990;49.548;9.730;2024-02-14T11:48:49;12.40;99.90
16736;DHT22;17990;49.548;9.730;2024-02-14T11:51:18;12.30;99.90
16736;DHT22;17990;49.548;9.730;2024-02-14T11:53:45;12.20;99.90
16736;DHT22;17990;49.548;9.730;2024-02-14T11:56:14;12.30;99.90
16736;DHT22;17990;49.548;9.730;2024-02-14T11:58:42;12.50;99.90
16736;DHT22;17990;49.548;9.730;2024-02-14T12:01:08;12.40;99.90
16736;DHT22;17990;49.548;9.730;2024-02-14T12:03:36;12.50;99.90
16736;DHT22;17990;49.548;9.730;2024-02-14T12:06:06;12.60;99.90
16736;DHT22;17990;49.548;9.730;2024-02-14T12:08:33;12.60;99.90
16736;DHT22;17990;49.548;9.730;2024-02-14T12:10:59;12.60;99.90
16736;DHT22;17990;49.548;9.730;2024-02-14T12:13:26;12.50;99.90
16736;DHT22;17990;49.548;9.730;2024-02-14T12:15:53;12.40;99.90
16736;DHT22;17990;49.548;9.730;2024-02-14T12:18:20;12.40;99.90
16736;DHT22;17990;49.548;9.730;2024-02-14T12:20:47;12.30;99.90
16736;DHT22;17990;49.548;9.730;2024-02-14T12:23:18;12.30;99.90
16736;DHT22;17990;49.548;9.730;2024-02-14T12:25:46;12.20;99.90
16736;DHT22;17990;49.548;9.730;2024-02-14T12:28:14;12.50;99.90
16736;DHT22;17990;49.548;9.730;2024-02-14T12:30:43;12.70;99.90
16736;DHT22;17990;49.548;9.730;2024-02-14T12:33:12;12.60;99.90
16736;DHT22;17990;49.548;9.730;2024-02-14T12:35:41;12.50;99.90
16736;DHT22;17990;49.548;9.730;2024-02-14T12:38:09;12.30;99.90
16736;DHT22;17990;49.548;9.730;2024-02-14T12:40:37;12.00;99.90
16736;DHT22;17990;49.548;9.730;2024-02-14T12:43:07;11.90;99.90
16736;DHT22;17990;49.548;9.730;2024-02-14T12:45:33;11.90;99.90
16736;DHT22;17990;49.548;9.730;2024-02-14T12:48:00;11.90;99.90
16736;DHT22;17990;49.548;9.730;2024-02-14T12:50:27;11.90;99.90
16736;DHT22;17990;49.548;9.730;2024-02-14T12:52:54;11.90;99.90
16736;DHT22;17990;49.548;9.730;2024-02-14T12:55:21;12.10;99.90
16736;DHT22;17990;49.548;9.730;2024-02-14T12:57:50;12.30;99.90
16736;DHT22;17990;49.548;9.730;2024-02-14T13:00:17;12.30;99.90
16736;DHT22;17990;49.548;9.730;2024-02-14T13:02:44;12.10;99.90
16736;DHT22;17990;49.548;9.730;2024-02-14T13:05:11;12.20;99.90
16736;DHT22;17990;49.548;9.730;2024-02-14T13:07:37;12.20;99.90
16736;DHT22;17990;49.548;9.730;2024-02-14T13:10:05;12.30;99.90
16736;DHT22;17990;49.548;9.730;2024-02-14T13:12:33;12.30;99.90
16736;DHT22;17990;49.548;9.730;2024-02-14T13:15:01;12.30;99.90
16736;DHT22;17990;49.548;9.730;2024-02-14T13:17:28;12.40;99.90
16736;DHT22;17990;49.548;9.730;2024-02-14T13:19:55;12.50;99.90
16736;DHT22;17990;49.548;9.730;2024-02-14T13:22:22;12.50;99.90
16736;DHT22;17990;49.548;9.730;2024-02-14T13:24:49;12.40;99.90
16736;DHT22;17990;49.548;9.730;2024-02-14T13:27:15;12.30;99.90
16736;DHT22;17990;49.548;9.730;2024-02-14T13:29:42;12.30;99.90
16736;DHT22;17990;49.548;9.730;2024-02-14T13:32:10;12.30;99.90
16736;DHT22;17990;49.548;9.730;2024-02-14T13:34:37;12.20;99.90
16736;DHT22;17990;49.548;9.730;2024-02-14T13:37:04;12.10;99.90
16736;DHT22;17990;49.548;9.730;2024-02-14T13:39:31;12.10;99.90
16736;DHT22;17990;49.548;9.730;2024-02-14T13:41:58;12.00;99.90
16736;DHT22;17990;49.548;9.730;2024-02-14T13:44:25;12.00;99.90
16736;DHT22;17990;49.548;9.730;2024-02-14T13:46:52;12.00;99.90
16736;DHT22;17990;49.548;9.730;2024-02-14T13:49:20;12.10;99.90
16736;DHT22;17990;49.548;9.730;2024-02-14T13:51:48;12.20;99.90
16736;DHT22;17990;49.548;9.730;2024-02-14T13:54:15;12.20;99.90
16736;DHT22;17990;49.548;9.730;2024-02-14T13:56:42;12.20;99.90
16736;DHT22;17990;49.548;9.730;2024-02-14T13:59:10;12.30;99.90
16736;DHT22;17990;49.548;9.730;2024-02-14T14:01:37;12.30;99.90
16736;DHT22;17990;49.548;9.730;2024-02-14T14:04:04;12.30;99.90
16736;DHT22;17990;49.548;9.730;2024-02-14T14:06:32;12.50;99.90
16736;DHT22;17990;49.548;9.730;2024-02-14T14:08:59;12.60;99.90
16736;DHT22;17990;49.548;9.730;2024-02-14T14:11:28;12.60;99.90
16736;DHT22;17990;49.548;9.730;2024-02-14T14:13:55;12.60;99.90
16736;DHT22;17990;49.548;9.730;2024-02-14T14:16:22;12.60;99.90
16736;DHT22;17990;49.548;9.730;2024-02-14T14:18:49;12.50;99.90
16736;DHT22;17990;49.548;9.730;2024-02-14T14:21:16;12.40;99.90
16736;DHT22;17990;49.548;9.730;2024-02-14T14:23:44;12.40;99.90
16736;DHT22;17990;49.548;9.730;2024-02-14T14:26:10;12.30;99.90
16736;DHT22;17990;49.548;9.730;2024-02-14T14:28:38;12.30;99.90
16736;DHT22;17990;49.548;9.730;2024-02-14T14:31:05;12.20;99.90
16736;DHT22;17990;49.548;9.730;2024-02-14T14:33:32;12.10;99.90
16736;DHT22;17990;49.548;9.730;2024-02-14T14:35:59;12.10;99.90
16736;DHT22;17990;49.548;9.730;2024-02-14T14:38:25;12.10;99.90
16736;DHT22;17990;49.548;9.730;2024-02-14T14:40:53;12.10;99.90
16736;DHT22;17990;49.548;9.730;2024-02-14T14:43:21;12.10;99.90
16736;DHT22;17990;49.548;9.730;2024-02-14T14:45:48;12.10;99.90
16736;DHT22;17990;49.548;9.730;2024-02-14T14:48:15;12.00;99.90
16736;DHT22;17990;49.548;9.730;2024-02-14T14:50:42;12.00;99.90
16736;DHT22;17990;49.548;9.730;2024-02-14T14:53:09;11.90;99.90
16736;DHT22;17990;49.548;9.730;2024-02-14T14:55:53;11.90;99.90
16736;DHT22;17990;49.548;9.730;2024-02-14T14:58:23;11.80;99.90
16736;DHT22;17990;49.548;9.730;2024-02-14T15:00:53;11.80;99.90
16736;DHT22;17990;49.548;9.730;2024-02-14T15:03:21;11.70;99.90
16736;DHT22;17990;49.548;9.730;2024-02-14T15:05:48;11.60;99.90
16736;DHT22;17990;49.548;9.730;2024-02-14T15:08:15;11.60;99.90
16736;DHT22;17990;49.548;9.730;2024-02-14T15:10:43;11.60;99.90
16736;DHT22;17990;49.548;9.730;2024-02-14T15:13:10;11.60;99.90
16736;DHT22;17990;49.548;9.730;2024-02-14T15:15:40;11.60;99.90
16736;DHT22;17990;49.548;9.730;2024-02-14T15:18:06;11.70;99.90
16736;DHT22;17990;49.548;9.730;2024-02-14T15:20:33;11.70;99.90
16736;DHT22;17990;49.548;9.730;2024-02-14T15:23:01;11.60;99.90
16736;DHT22;17990;49.548;9.730;2024-02-14T15:25:28;11.60;99.90
16736;DHT22;17990;49.548;9.730;2024-02-14T15:27:55;11.70;99.90
16736;DHT22;17990;49.548;9.730;2024-02-14T15:30:23;11.70;99.90
16736;DHT22;17990;49.548;9.730;2024-02-14T15:33:09;11.70;99.90
16736;DHT22;17990;49.548;9.730;2024-02-14T15:35:49;11.60;99.90
16736;DHT22;17990;49.548;9.730;2024-02-14T15:38:16;11.60;99.90
16736;DHT22;17990;49.548;9.730;2024-02-14T15:40:44;11.60;99.90